sensor_id;sensor_type;location;lat;lon;timestamp;pressure;altitude;pressure_sealevel;temperature;humidity
64668;BME280;51077;42.716;23.344;2022-08-25T00:01:59;95237.97;;;20.09;74.69
64668;BME280;51077;42.716;23.344;2022-08-25T00:04:25;95238.72;;;20.10;74.69
64668;BME280;51077;42.716;23.344;2022-08-25T00:06:52;95231.41;;;20.15;74.37
64668;BME280;51077;42.716;23.344;2022-08-25T00:09:22;95232.38;;;20.27;73.85
64668;BME280;51077;42.716;23.344;2022-08-25T00:11:49;95225.78;;;20.32;73.57
64668;BME280;51077;42.716;23.344;2022-08-25T00:14:19;95229.16;;;20.30;73.71
64668;BME280;51077;42.716;23.344;2022-08-25T00:16:45;95226.06;;;20.26;73.73
64668;BME280;51077;42.716;23.344;2022-08-25T00:19:14;95224.19;;;20.29;73.82
64668;BME280;51077;42.716;23.344;2022-08-25T00:21:41;95220.53;;;20.36;73.59
64668;BME280;51077;42.716;23.344;2022-08-25T00:24:07;95224.19;;;20.29;73.85
64668;BME280;51077;42.716;23.344;2022-08-25T00:26:33;95227.13;;;20.31;73.87
64668;BME280;51077;42.716;23.344;2022-08-25T00:28:59;95223.66;;;20.40;73.58
64668;BME280;51077;42.716;23.344;2022-08-25T00:31:25;95221.44;;;20.39;73.53
64668;BME280;51077;42.716;23.344;2022-08-25T00:33:51;95221.97;;;20.27;73.90
64668;BME280;51077;42.716;23.344;2022-08-25T00:36:18;95229.84;;;20.21;74.36
64668;BME280;51077;42.716;23.344;2022-08-25T00:38:45;95224.22;;;20.12;74.81
64668;BME280;51077;42.716;23.344;2022-08-25T00:41:14;95216.69;;;20.04;75.04
64668;BME280;51077;42.716;23.344;2022-08-25T00:46:07;95220.41;;;19.90;75.91
64668;BME280;51077;42.716;23.344;2022-08-25T00:48:33;95215.81;;;19.84;76.04
64668;BME280;51077;42.716;23.344;2022-08-25T00:50:59;95232.19;;;19.80;76.51
64668;BME280;51077;42.716;23.344;2022-08-25T00:53:27;95233.94;;;19.76;76.44
64668;BME280;51077;42.716;23.344;2022-08-25T00:55:52;95231.00;;;19.74;76.68
64668;BME280;51077;42.716;23.344;2022-08-25T00:58:21;95228.34;;;19.76;76.53
64668;BME280;51077;42.716;23.344;2022-08-25T01:00:50;95227.03;;;19.94;75.98
64668;BME280;51077;42.716;23.344;2022-08-25T01:03:17;95230.16;;;19.98;75.83
64668;BME280;51077;42.716;23.344;2022-08-25T01:05:44;95216.69;;;20.04;75.54
64668;BME280;51077;42.716;23.344;2022-08-25T01:08:10;95213.53;;;20.18;74.83
64668;BME280;51077;42.716;23.344;2022-08-25T01:10:39;95210.16;;;20.19;74.55
64668;BME280;51077;42.716;23.344;2022-08-25T01:13:16;95202.88;;;20.24;74.35
64668;BME280;51077;42.716;23.344;2022-08-25T01:15:45;95199.94;;;20.22;74.37
64668;BME280;51077;42.716;23.344;2022-08-25T01:18:13;95199.28;;;20.14;74.12
64668;BME280;51077;42.716;23.344;2022-08-25T01:20:40;95199.56;;;20.08;74.24
64668;BME280;51077;42.716;23.344;2022-08-25T01:23:06;95199.66;;;20.00;74.44
64668;BME280;51077;42.716;23.344;2022-08-25T01:25:48;95210.81;;;20.00;74.43
64668;BME280;51077;42.716;23.344;2022-08-25T01:28:16;95196.56;;;19.96;74.74
64668;BME280;51077;42.716;23.344;2022-08-25T01:30:41;95199.59;;;19.91;74.66
64668;BME280;51077;42.716;23.344;2022-08-25T01:33:08;95207.47;;;19.84;75.04
64668;BME280;51077;42.716;23.344;2022-08-25T01:35:35;95216.25;;;19.81;75.19
64668;BME280;51077;42.716;23.344;2022-08-25T01:38:03;95216.25;;;19.81;75.02
64668;BME280;51077;42.716;23.344;2022-08-25T01:40:30;95205.84;;;19.81;75.09
64668;BME280;51077;42.716;23.344;2022-08-25T01:43:10;95204.53;;;19.82;75.07
64668;BME280;51077;42.716;23.344;2022-08-25T01:45:39;95202.47;;;19.83;75.01
64668;BME280;51077;42.716;23.344;2022-08-25T01:48:06;95203.94;;;19.84;75.06
64668;BME280;51077;42.716;23.344;2022-08-25T01:50:32;95209.84;;;19.88;74.84
64668;BME280;51077;42.716;23.344;2022-08-25T01:53:26;95212.06;;;19.90;74.48
64668;BME280;51077;42.716;23.344;2022-08-25T01:55:52;95208.19;;;19.85;74.48
64668;BME280;51077;42.716;23.344;2022-08-25T01:58:31;95211.75;;;19.86;74.63
64668;BME280;51077;42.716;23.344;2022-08-25T02:00:59;95216.53;;;19.85;74.69
64668;BME280;51077;42.716;23.344;2022-08-25T02:03:27;95209.09;;;19.88;74.44
64668;BME280;51077;42.716;23.344;2022-08-25T02:05:53;95207.22;;;19.90;74.33
64668;BME280;51077;42.716;23.344;2022-08-25T02:08:19;95210.16;;;19.92;74.27
64668;BME280;51077;42.716;23.344;2022-08-25T02:10:47;95203.44;;;19.95;74.11
64668;BME280;51077;42.716;23.344;2022-08-25T02:13:13;95197.88;;;19.95;73.96
64668;BME280;51077;42.716;23.344;2022-08-25T02:15:45;95188.94;;;19.97;73.69
64668;BME280;51077;42.716;23.344;2022-08-25T02:18:12;95187.13;;;19.92;73.84
64668;BME280;51077;42.716;23.344;2022-08-25T02:20:38;95197.81;;;19.86;73.93
64668;BME280;51077;42.716;23.344;2022-08-25T02:23:04;95194.38;;;19.77;74.13
64668;BME280;51077;42.716;23.344;2022-08-25T02:25:30;95197.25;;;19.70;74.40
64668;BME280;51077;42.716;23.344;2022-08-25T02:27:56;95191.22;;;19.64;74.61
64668;BME280;51077;42.716;23.344;2022-08-25T02:30:22;95192.34;;;19.61;74.75
64668;BME280;51077;42.716;23.344;2022-08-25T02:32:48;95186.44;;;19.56;74.92
64668;BME280;51077;42.716;23.344;2022-08-25T02:35:13;95184.56;;;19.59;74.91
64668;BME280;51077;42.716;23.344;2022-08-25T02:37:39;95188.47;;;19.56;74.86
64668;BME280;51077;42.716;23.344;2022-08-25T02:40:05;95193.88;;;19.54;75.11
64668;BME280;51077;42.716;23.344;2022-08-25T02:42:31;95192.97;;;19.51;75.07
64668;BME280;51077;42.716;23.344;2022-08-25T02:44:57;95190.03;;;19.49;75.20
64668;BME280;51077;42.716;23.344;2022-08-25T02:47:22;95200.28;;;19.47;75.26
64668;BME280;51077;42.716;23.344;2022-08-25T02:49:49;95198.22;;;19.47;75.25
64668;BME280;51077;42.716;23.344;2022-08-25T02:52:14;95192.47;;;19.45;75.46
64668;BME280;51077;42.716;23.344;2022-08-25T02:54:40;95196.09;;;19.38;75.74
64668;BME280;51077;42.716;23.344;2022-08-25T02:57:06;95202.06;;;19.34;75.84
64668;BME280;51077;42.716;23.344;2022-08-25T02:59:32;95208.22;;;19.33;75.79
64668;BME280;51077;42.716;23.344;2022-08-25T03:02:00;95208.22;;;19.33;75.80
64668;BME280;51077;42.716;23.344;2022-08-25T03:04:25;95207.44;;;19.32;75.87
64668;BME280;51077;42.716;23.344;2022-08-25T03:06:51;95207.31;;;19.48;75.40
64668;BME280;51077;42.716;23.344;2022-08-25T03:09:16;95210.91;;;19.58;74.63
64668;BME280;51077;42.716;23.344;2022-08-25T03:11:42;95205.28;;;19.66;74.23
64668;BME280;51077;42.716;23.344;2022-08-25T03:14:08;95208.72;;;19.74;73.67
64668;BME280;51077;42.716;23.344;2022-08-25T03:16:35;95196.25;;;19.75;73.56
64668;BME280;51077;42.716;23.344;2022-08-25T03:19:00;95202.88;;;19.79;73.38
64668;BME280;51077;42.716;23.344;2022-08-25T03:21:27;95201.69;;;19.73;73.38
64668;BME280;51077;42.716;23.344;2022-08-25T03:23:53;95203.06;;;19.64;74.07
64668;BME280;51077;42.716;23.344;2022-08-25T03:26:19;95206.59;;;19.65;74.05
64668;BME280;51077;42.716;23.344;2022-08-25T03:29:04;95201.34;;;19.69;73.92
64668;BME280;51077;42.716;23.344;2022-08-25T03:31:31;95203.41;;;19.68;74.06
64668;BME280;51077;42.716;23.344;2022-08-25T03:33:57;95199.38;;;19.62;73.99
64668;BME280;51077;42.716;23.344;2022-08-25T03:36:23;95204.53;;;19.65;74.05
64668;BME280;51077;42.716;23.344;2022-08-25T03:38:49;95212.16;;;19.65;74.24
64668;BME280;51077;42.716;23.344;2022-08-25T03:41:18;95216.25;;;19.64;74.24
64668;BME280;51077;42.716;23.344;2022-08-25T03:43:44;95215.50;;;19.63;74.25
64668;BME280;51077;42.716;23.344;2022-08-25T03:46:23;95208.97;;;19.68;74.10
64668;BME280;51077;42.716;23.344;2022-08-25T03:48:49;95207.56;;;19.77;73.96
64668;BME280;51077;42.716;23.344;2022-08-25T03:51:34;95204.53;;;19.82;73.47
64668;BME280;51077;42.716;23.344;2022-08-25T03:54:01;95199.59;;;19.91;73.14
64668;BME280;51077;42.716;23.344;2022-08-25T03:56:26;95191.88;;;19.99;72.80
64668;BME280;51077;42.716;23.344;2022-08-25T03:58:53;95197.06;;;19.85;73.14
64668;BME280;51077;42.716;23.344;2022-08-25T04:01:18;95190.44;;;19.80;73.37
64668;BME280;51077;42.716;23.344;2022-08-25T04:03:44;95188.41;;;19.81;73.67
64668;BME280;51077;42.716;23.344;2022-08-25T04:06:10;95184.75;;;19.88;73.20
64668;BME280;51077;42.716;23.344;2022-08-25T04:08:36;95186.34;;;19.81;73.22
64668;BME280;51077;42.716;23.344;2022-08-25T04:11:10;95189.22;;;19.74;73.59
64668;BME280;51077;42.716;23.344;2022-08-25T04:13:37;95192.38;;;19.88;73.21
64668;BME280;51077;42.716;23.344;2022-08-25T04:16:10;95194.59;;;19.89;73.12
64668;BME280;51077;42.716;23.344;2022-08-25T04:18:37;95209.38;;;19.82;73.43
64668;BME280;51077;42.716;23.344;2022-08-25T04:21:04;95208.19;;;19.85;73.33
64668;BME280;51077;42.716;23.344;2022-08-25T04:23:31;95203.63;;;19.80;73.54
64668;BME280;51077;42.716;23.344;2022-08-25T04:25:56;95190.19;;;19.86;73.06
64668;BME280;51077;42.716;23.344;2022-08-25T04:28:22;95190.19;;;19.86;73.17
64668;BME280;51077;42.716;23.344;2022-08-25T04:30:48;95178.88;;;19.84;73.41
64668;BME280;51077;42.716;23.344;2022-08-25T04:33:13;95182.88;;;19.91;73.02
64668;BME280;51077;42.716;23.344;2022-08-25T04:35:39;95190.50;;;19.90;73.18
64668;BME280;51077;42.716;23.344;2022-08-25T04:38:05;95191.47;;;19.85;73.34
64668;BME280;51077;42.716;23.344;2022-08-25T04:40:31;95199.28;;;19.87;73.26
64668;BME280;51077;42.716;23.344;2022-08-25T04:42:57;95207.63;;;19.87;73.31
64668;BME280;51077;42.716;23.344;2022-08-25T04:45:23;95208.38;;;19.87;73.32
64668;BME280;51077;42.716;23.344;2022-08-25T04:47:48;95208.38;;;19.87;73.39
64668;BME280;51077;42.716;23.344;2022-08-25T04:50:13;95204.81;;;20.04;72.71
64668;BME280;51077;42.716;23.344;2022-08-25T04:52:39;95210.53;;;20.06;72.51
64668;BME280;51077;42.716;23.344;2022-08-25T04:55:05;95207.84;;;20.16;72.08
64668;BME280;51077;42.716;23.344;2022-08-25T04:57:30;95216.66;;;20.22;71.95
64668;BME280;51077;42.716;23.344;2022-08-25T04:59:55;95211.81;;;20.22;72.02
64668;BME280;51077;42.716;23.344;2022-08-25T05:02:21;95211.41;;;20.26;72.12
64668;BME280;51077;42.716;23.344;2022-08-25T05:04:49;95221.69;;;20.33;71.75
64668;BME280;51077;42.716;23.344;2022-08-25T05:07:15;95203.13;;;20.45;71.30
64668;BME280;51077;42.716;23.344;2022-08-25T05:09:40;95206.16;;;20.57;70.87
64668;BME280;51077;42.716;23.344;2022-08-25T05:12:06;95211.88;;;20.59;70.68
64668;BME280;51077;42.716;23.344;2022-08-25T05:14:32;95203.94;;;20.55;71.00
64668;BME280;51077;42.716;23.344;2022-08-25T05:16:57;95203.25;;;20.65;70.37
64668;BME280;51077;42.716;23.344;2022-08-25T05:19:23;95194.28;;;20.66;70.46
64668;BME280;51077;42.716;23.344;2022-08-25T05:21:50;95196.69;;;20.79;70.00
64668;BME280;51077;42.716;23.344;2022-08-25T05:24:15;95189.22;;;20.82;70.11
64668;BME280;51077;42.716;23.344;2022-08-25T05:26:40;95192.44;;;20.88;69.97
64668;BME280;51077;42.716;23.344;2022-08-25T05:29:06;95193.06;;;20.96;69.38
64668;BME280;51077;42.716;23.344;2022-08-25T05:31:32;95182.94;;;21.01;69.54
64668;BME280;51077;42.716;23.344;2022-08-25T05:33:58;95183.38;;;21.07;69.24
64668;BME280;51077;42.716;23.344;2022-08-25T05:36:26;95195.88;;;21.16;69.27
64668;BME280;51077;42.716;23.344;2022-08-25T05:38:52;95187.69;;;21.27;69.06
64668;BME280;51077;42.716;23.344;2022-08-25T05:41:20;95190.97;;;21.33;68.67
64668;BME280;51077;42.716;23.344;2022-08-25T05:43:47;95197.72;;;21.50;68.26
64668;BME280;51077;42.716;23.344;2022-08-25T05:46:15;95197.72;;;21.50;68.06
64668;BME280;51077;42.716;23.344;2022-08-25T05:48:41;95198.00;;;21.54;68.00
64668;BME280;51077;42.716;23.344;2022-08-25T05:51:08;95196.09;;;21.66;67.64
64668;BME280;51077;42.716;23.344;2022-08-25T05:53:35;95192.72;;;21.77;67.13
64668;BME280;51077;42.716;23.344;2022-08-25T05:56:01;95186.69;;;21.81;67.18
64668;BME280;51077;42.716;23.344;2022-08-25T05:58:28;95196.53;;;21.92;66.77
64668;BME280;51077;42.716;23.344;2022-08-25T06:00:55;95200.06;;;21.92;66.92
64668;BME280;51077;42.716;23.344;2022-08-25T06:03:21;95195.06;;;22.00;66.71
64668;BME280;51077;42.716;23.344;2022-08-25T06:05:46;95190.94;;;22.01;66.67
64668;BME280;51077;42.716;23.344;2022-08-25T06:08:12;95198.88;;;22.05;67.05
64668;BME280;51077;42.716;23.344;2022-08-25T06:10:38;95201.09;;;22.16;66.74
64668;BME280;51077;42.716;23.344;2022-08-25T06:13:03;95189.25;;;22.37;66.24
64668;BME280;51077;42.716;23.344;2022-08-25T06:15:30;95191.47;;;22.39;66.04
64668;BME280;51077;42.716;23.344;2022-08-25T06:17:56;95198.97;;;22.36;66.31
64668;BME280;51077;42.716;23.344;2022-08-25T06:20:28;95197.63;;;22.47;65.54
64668;BME280;51077;42.716;23.344;2022-08-25T06:22:55;95181.97;;;22.53;65.57
64668;BME280;51077;42.716;23.344;2022-08-25T06:25:23;95191.91;;;22.35;66.30
64668;BME280;51077;42.716;23.344;2022-08-25T06:27:49;95194.13;;;22.27;66.83
64668;BME280;51077;42.716;23.344;2022-08-25T06:30:17;95192.19;;;22.39;66.36
64668;BME280;51077;42.716;23.344;2022-08-25T06:32:44;95186.88;;;22.43;66.67
64668;BME280;51077;42.716;23.344;2022-08-25T06:35:15;95195.75;;;22.71;65.68
64668;BME280;51077;42.716;23.344;2022-08-25T06:37:41;95196.88;;;22.87;65.09
64668;BME280;51077;42.716;23.344;2022-08-25T06:40:08;95196.31;;;23.10;64.28
64668;BME280;51077;42.716;23.344;2022-08-25T06:42:34;95196.13;;;23.18;64.08
64668;BME280;51077;42.716;23.344;2022-08-25T06:44:59;95207.59;;;23.22;63.81
64668;BME280;51077;42.716;23.344;2022-08-25T06:47:25;95200.41;;;23.40;63.15
64668;BME280;51077;42.716;23.344;2022-08-25T06:49:51;95187.72;;;23.61;62.34
64668;BME280;51077;42.716;23.344;2022-08-25T06:52:16;95192.53;;;23.70;61.77
64668;BME280;51077;42.716;23.344;2022-08-25T06:54:42;95198.78;;;23.80;61.87
64668;BME280;51077;42.716;23.344;2022-08-25T06:57:07;95201.19;;;23.95;61.34
64668;BME280;51077;42.716;23.344;2022-08-25T06:59:34;95196.00;;;24.13;60.29
64668;BME280;51077;42.716;23.344;2022-08-25T07:02:00;95201.72;;;24.15;60.54
64668;BME280;51077;42.716;23.344;2022-08-25T07:04:26;95202.53;;;24.06;60.38
64668;BME280;51077;42.716;23.344;2022-08-25T07:06:51;95200.63;;;24.08;60.24
64668;BME280;51077;42.716;23.344;2022-08-25T07:09:17;95190.91;;;24.21;59.97
64668;BME280;51077;42.716;23.344;2022-08-25T07:11:43;95200.53;;;24.30;59.79
64668;BME280;51077;42.716;23.344;2022-08-25T07:14:11;95192.88;;;24.30;60.02
64668;BME280;51077;42.716;23.344;2022-08-25T07:16:37;95197.81;;;24.53;59.73
64668;BME280;51077;42.716;23.344;2022-08-25T07:19:04;95195.84;;;24.68;59.23
64668;BME280;51077;42.716;23.344;2022-08-25T07:21:32;95194.38;;;25.02;58.89
64668;BME280;51077;42.716;23.344;2022-08-25T07:23:58;95186.91;;;25.42;57.57
64668;BME280;51077;42.716;23.344;2022-08-25T07:26:28;95191.56;;;25.74;56.34
64668;BME280;51077;42.716;23.344;2022-08-25T07:28:54;95183.69;;;25.96;55.68
64668;BME280;51077;42.716;23.344;2022-08-25T07:31:20;95187.22;;;26.22;54.41
64668;BME280;51077;42.716;23.344;2022-08-25T07:33:46;95181.78;;;26.13;54.34
64668;BME280;51077;42.716;23.344;2022-08-25T07:36:30;95183.25;;;26.14;54.45
64668;BME280;51077;42.716;23.344;2022-08-25T07:38:59;95183.88;;;26.12;54.28
64668;BME280;51077;42.716;23.344;2022-08-25T07:41:29;95188.91;;;26.02;54.65
64668;BME280;51077;42.716;23.344;2022-08-25T07:43:55;95184.19;;;25.93;54.30
64668;BME280;51077;42.716;23.344;2022-08-25T07:46:21;95191.09;;;25.78;55.16
64668;BME280;51077;42.716;23.344;2022-08-25T07:48:46;95193.41;;;25.81;55.08
64668;BME280;51077;42.716;23.344;2022-08-25T07:51:12;95196.00;;;25.66;55.00
64668;BME280;51077;42.716;23.344;2022-08-25T07:53:40;95200.41;;;25.69;55.17
64668;BME280;51077;42.716;23.344;2022-08-25T07:56:10;95203.69;;;25.77;55.46
64668;BME280;51077;42.716;23.344;2022-08-25T07:58:36;95194.94;;;25.96;54.82
64668;BME280;51077;42.716;23.344;2022-08-25T08:01:02;95195.63;;;26.09;54.37
64668;BME280;51077;42.716;23.344;2022-08-25T08:03:28;95186.56;;;26.10;54.90
64668;BME280;51077;42.716;23.344;2022-08-25T08:05:54;95192.22;;;26.24;54.57
64668;BME280;51077;42.716;23.344;2022-08-25T08:08:21;95185.69;;;26.33;53.93
64668;BME280;51077;42.716;23.344;2022-08-25T08:10:46;95185.56;;;26.56;53.49
64668;BME280;51077;42.716;23.344;2022-08-25T08:13:12;95183.84;;;27.04;52.77
64668;BME280;51077;42.716;23.344;2022-08-25T08:15:41;95176.22;;;27.48;50.87
64668;BME280;51077;42.716;23.344;2022-08-25T08:18:07;95184.25;;;27.97;49.44
64668;BME280;51077;42.716;23.344;2022-08-25T08:20:33;95175.56;;;28.23;47.80
64668;BME280;51077;42.716;23.344;2022-08-25T08:22:59;95174.88;;;28.38;47.70
64668;BME280;51077;42.716;23.344;2022-08-25T08:25:24;95175.75;;;28.57;47.71
64668;BME280;51077;42.716;23.344;2022-08-25T08:27:50;95169.72;;;28.80;47.34
64668;BME280;51077;42.716;23.344;2022-08-25T08:30:15;95168.81;;;29.07;46.43
64668;BME280;51077;42.716;23.344;2022-08-25T08:32:41;95159.94;;;29.30;46.52
64668;BME280;51077;42.716;23.344;2022-08-25T08:35:08;95153.88;;;29.38;45.80
64668;BME280;51077;42.716;23.344;2022-08-25T08:37:33;95160.69;;;29.49;45.45
64668;BME280;51077;42.716;23.344;2022-08-25T08:39:59;95162.28;;;29.70;45.18
64668;BME280;51077;42.716;23.344;2022-08-25T08:45:36;95156.97;;;29.96;39.22
64668;BME280;51077;42.716;23.344;2022-08-25T08:50:48;95149.69;;;30.09;41.28
64668;BME280;51077;42.716;23.344;2022-08-25T08:53:47;95150.97;;;30.23;40.49
64668;BME280;51077;42.716;23.344;2022-08-25T08:56:22;95155.22;;;30.42;39.29
64668;BME280;51077;42.716;23.344;2022-08-25T08:58:57;95152.63;;;30.48;39.66
64668;BME280;51077;42.716;23.344;2022-08-25T09:01:48;95144.63;;;30.81;39.69
64668;BME280;51077;42.716;23.344;2022-08-25T09:04:21;95145.66;;;31.09;39.53
64668;BME280;51077;42.716;23.344;2022-08-25T09:06:48;95143.59;;;31.32;38.78
64668;BME280;51077;42.716;23.344;2022-08-25T09:09:24;95138.78;;;31.36;38.26
64668;BME280;51077;42.716;23.344;2022-08-25T09:12:12;95145.47;;;31.67;37.40
64668;BME280;51077;42.716;23.344;2022-08-25T09:15:03;95144.91;;;31.92;37.27
64668;BME280;51077;42.716;23.344;2022-08-25T09:28:20;95148.31;;;31.25;37.39
64668;BME280;51077;42.716;23.344;2022-08-25T09:33:20;95143.69;;;30.74;37.94
64668;BME280;51077;42.716;23.344;2022-08-25T09:35:46;95138.03;;;30.56;38.11
64668;BME280;51077;42.716;23.344;2022-08-25T09:38:13;95132.81;;;30.48;38.19
64668;BME280;51077;42.716;23.344;2022-08-25T09:40:45;95126.91;;;30.42;38.40
64668;BME280;51077;42.716;23.344;2022-08-25T09:43:39;95129.56;;;30.38;38.46
64668;BME280;51077;42.716;23.344;2022-08-25T09:46:15;95129.78;;;30.24;38.69
64668;BME280;51077;42.716;23.344;2022-08-25T09:51:27;95125.97;;;29.82;38.87
64668;BME280;51077;42.716;23.344;2022-08-25T09:53:59;95126.28;;;29.90;39.20
64668;BME280;51077;42.716;23.344;2022-08-25T09:56:28;95125.41;;;30.03;39.09
64668;BME280;51077;42.716;23.344;2022-08-25T09:58:55;95126.56;;;29.96;38.17
64668;BME280;51077;42.716;23.344;2022-08-25T10:01:53;95137.53;;;29.70;37.58
64668;BME280;51077;42.716;23.344;2022-08-25T10:04:36;95129.78;;;29.89;37.11
64668;BME280;51077;42.716;23.344;2022-08-25T10:07:17;95126.41;;;29.74;37.37
64668;BME280;51077;42.716;23.344;2022-08-25T10:09:53;95132.28;;;29.63;38.26
64668;BME280;51077;42.716;23.344;2022-08-25T10:12:28;95134.78;;;29.90;37.87
64668;BME280;51077;42.716;23.344;2022-08-25T10:14:54;95133.56;;;30.31;37.35
64668;BME280;51077;42.716;23.344;2022-08-25T10:17:29;95126.19;;;30.42;36.86
64668;BME280;51077;42.716;23.344;2022-08-25T10:22:47;95124.41;;;30.33;35.68
64668;BME280;51077;42.716;23.344;2022-08-25T10:25:16;95119.31;;;30.29;35.97
64668;BME280;51077;42.716;23.344;2022-08-25T10:28:09;95118.09;;;30.34;36.16
64668;BME280;51077;42.716;23.344;2022-08-25T10:36:20;95113.84;;;31.13;34.84
64668;BME280;51077;42.716;23.344;2022-08-25T10:38:57;95106.88;;;31.36;34.17
64668;BME280;51077;42.716;23.344;2022-08-25T10:41:50;95108.19;;;31.33;34.33
64668;BME280;51077;42.716;23.344;2022-08-25T10:44:40;95102.84;;;30.81;34.82
64668;BME280;51077;42.716;23.344;2022-08-25T10:50:21;95105.13;;;30.47;35.42
64668;BME280;51077;42.716;23.344;2022-08-25T11:04:02;95087.16;;;31.40;34.54
64668;BME280;51077;42.716;23.344;2022-08-25T11:06:41;95094.97;;;31.83;34.17
64668;BME280;51077;42.716;23.344;2022-08-25T11:09:14;95099.50;;;32.16;33.23
64668;BME280;51077;42.716;23.344;2022-08-25T11:11:48;95086.41;;;32.05;32.69
64668;BME280;51077;42.716;23.344;2022-08-25T11:14:20;95080.28;;;31.69;33.23
64668;BME280;51077;42.716;23.344;2022-08-25T11:19:44;95078.03;;;32.09;32.65
64668;BME280;51077;42.716;23.344;2022-08-25T11:25:17;95074.19;;;32.24;33.05
64668;BME280;51077;42.716;23.344;2022-08-25T11:27:58;95075.03;;;32.29;32.84
64668;BME280;51077;42.716;23.344;2022-08-25T11:30:25;95067.84;;;32.50;32.30
64668;BME280;51077;42.716;23.344;2022-08-25T11:32:52;95067.81;;;32.74;32.14
64668;BME280;51077;42.716;23.344;2022-08-25T11:35:28;95058.34;;;32.91;31.43
64668;BME280;51077;42.716;23.344;2022-08-25T11:47:43;95046.88;;;33.43;30.36
64668;BME280;51077;42.716;23.344;2022-08-25T11:53:29;95043.66;;;33.87;29.80
64668;BME280;51077;42.716;23.344;2022-08-25T11:56:01;95026.94;;;34.04;29.56
64668;BME280;51077;42.716;23.344;2022-08-25T12:01:02;95033.53;;;34.46;28.58
64668;BME280;51077;42.716;23.344;2022-08-25T12:11:44;95030.31;;;34.28;28.92
64668;BME280;51077;42.716;23.344;2022-08-25T12:19:46;95027.03;;;34.42;28.62
64668;BME280;51077;42.716;23.344;2022-08-25T12:30:12;95041.38;;;32.69;30.29
64668;BME280;51077;42.716;23.344;2022-08-25T12:33:08;95032.94;;;32.97;30.44
64668;BME280;51077;42.716;23.344;2022-08-25T12:35:56;95040.69;;;33.23;29.63
64668;BME280;51077;42.716;23.344;2022-08-25T12:41:13;95026.63;;;33.89;29.06
64668;BME280;51077;42.716;23.344;2022-08-25T12:43:44;95031.06;;;33.08;29.83
64668;BME280;51077;42.716;23.344;2022-08-25T12:51:50;95024.91;;;31.90;30.88
64668;BME280;51077;42.716;23.344;2022-08-25T12:54:38;95021.88;;;32.08;31.03
64668;BME280;51077;42.716;23.344;2022-08-25T12:57:22;95021.84;;;32.06;31.15
64668;BME280;51077;42.716;23.344;2022-08-25T12:59:56;95029.94;;;31.69;32.32
64668;BME280;51077;42.716;23.344;2022-08-25T13:05:44;95025.09;;;31.08;33.10
64668;BME280;51077;42.716;23.344;2022-08-25T13:14:00;95031.31;;;31.24;32.37
64668;BME280;51077;42.716;23.344;2022-08-25T13:16:30;95027.66;;;31.42;32.22
64668;BME280;51077;42.716;23.344;2022-08-25T13:18:58;95020.47;;;31.39;32.08
64668;BME280;51077;42.716;23.344;2022-08-25T13:21:45;95018.94;;;31.14;32.60
64668;BME280;51077;42.716;23.344;2022-08-25T13:24:18;95018.53;;;31.23;32.62
64668;BME280;51077;42.716;23.344;2022-08-25T13:26:47;95020.28;;;31.33;32.68
64668;BME280;51077;42.716;23.344;2022-08-25T13:29:28;95020.59;;;31.43;32.22
64668;BME280;51077;42.716;23.344;2022-08-25T13:31:55;95027.06;;;31.45;32.38
64668;BME280;51077;42.716;23.344;2022-08-25T13:34:33;95026.03;;;31.35;31.99
64668;BME280;51077;42.716;23.344;2022-08-25T13:37:18;95023.63;;;31.27;32.70
64668;BME280;51077;42.716;23.344;2022-08-25T13:40:13;95019.72;;;31.16;33.14
64668;BME280;51077;42.716;23.344;2022-08-25T13:42:52;95022.63;;;30.96;32.65
64668;BME280;51077;42.716;23.344;2022-08-25T13:45:21;95020.81;;;30.85;32.96
64668;BME280;51077;42.716;23.344;2022-08-25T13:47:48;95029.38;;;30.87;33.27
64668;BME280;51077;42.716;23.344;2022-08-25T13:55:54;95027.16;;;30.44;33.58
64668;BME280;51077;42.716;23.344;2022-08-25T13:58:40;95019.34;;;30.24;33.67
64668;BME280;51077;42.716;23.344;2022-08-25T14:01:28;95022.44;;;30.13;33.77
64668;BME280;51077;42.716;23.344;2022-08-25T14:04:17;95023.59;;;30.05;33.88
64668;BME280;51077;42.716;23.344;2022-08-25T14:06:41;95017.69;;;29.99;34.04
64668;BME280;51077;42.716;23.344;2022-08-25T14:09:15;95019.94;;;29.83;34.53
64668;BME280;51077;42.716;23.344;2022-08-25T14:11:47;95025.66;;;29.85;34.41
64668;BME280;51077;42.716;23.344;2022-08-25T14:19:21;95023.22;;;29.95;34.30
64668;BME280;51077;42.716;23.344;2022-08-25T14:21:48;95021.44;;;29.86;34.20
64668;BME280;51077;42.716;23.344;2022-08-25T14:24:20;95016.44;;;29.85;34.17
64668;BME280;51077;42.716;23.344;2022-08-25T14:26:47;95010.06;;;29.84;34.34
64668;BME280;51077;42.716;23.344;2022-08-25T14:29:14;95015.78;;;29.86;34.61
64668;BME280;51077;42.716;23.344;2022-08-25T14:31:42;95016.94;;;29.79;34.55
64668;BME280;51077;42.716;23.344;2022-08-25T14:34:12;95013.81;;;29.71;34.70
64668;BME280;51077;42.716;23.344;2022-08-25T14:36:38;95018.94;;;29.57;34.81
64668;BME280;51077;42.716;23.344;2022-08-25T14:39:04;95019.31;;;29.31;35.25
64668;BME280;51077;42.716;23.344;2022-08-25T14:41:33;95018.66;;;29.33;35.54
64668;BME280;51077;42.716;23.344;2022-08-25T14:44:03;95022.84;;;29.14;35.89
64668;BME280;51077;42.716;23.344;2022-08-25T14:46:31;95019.19;;;29.11;35.83
64668;BME280;51077;42.716;23.344;2022-08-25T14:49:03;95014.81;;;29.08;36.26
64668;BME280;51077;42.716;23.344;2022-08-25T14:51:29;95003.53;;;29.08;36.43
64668;BME280;51077;42.716;23.344;2022-08-25T14:54:02;95013.75;;;28.99;36.46
64668;BME280;51077;42.716;23.344;2022-08-25T14:56:29;95009.41;;;28.96;36.59
64668;BME280;51077;42.716;23.344;2022-08-25T14:58:55;95011.22;;;28.90;36.64
64668;BME280;51077;42.716;23.344;2022-08-25T15:01:22;95010.25;;;28.83;36.61